Flight Track Log - Related Links

Times and Time Zones

All times are in EDT time to prevent confusion due to time zone crossing. See the N38TA flight status page for this flight to view local times or setup timezone preferences in your user account.

Time Position Orientation Groundspeed Altitude Reporting Facility
EDT Latitude Longitude Course Direction KTS MPH feet Rate Location/Type
Tue 01:44:09 PM 30.6286 -97.5600 96° East 205 236 4,900  Level Fort Worth Center
Tue 01:45:11 PM 30.5972 -97.5133 128° Southeast 191 220 6,300 1,488 Climbing Fort Worth Center
Tue 01:46:14 PM 30.5664 -97.4644 126° Southeast 191 220 8,000 1,557 Climbing Fort Worth Center
Tue 01:47:22 PM 30.5919 -97.4025 64° Northeast 180 207 9,700 1,385 Climbing Houston Center
Tue 01:48:00 PM 30.3628 -97.4077 96° East  Level FlightAware Approximate
Tue 01:48:24 PM 30.6133 -97.3444 67° East 189 217 11,000  Level Houston Center
Tue 01:49:00 PM 30.3548 -97.3192 96° East  Level FlightAware Approximate
Tue 01:49:26 PM 30.6306 -97.2844 72° East 195 224 12,400  Level Houston Center
Tue 01:50:28 PM 30.6608 -97.2219 61° Northeast 190 219 14,000 1,258 Climbing Houston Center
Tue 01:51:30 PM 30.6814 -97.1672 66° East 189 217 15,000 1,065 Climbing Houston Center
Tue 01:52:32 PM 30.7047 -97.1131 63° Northeast 188 216 16,200 1,161 Climbing Houston Center
Tue 01:53:34 PM 30.7281 -97.0611 62° Northeast 187 215 17,400 919 Climbing Houston Center
Tue 01:54:36 PM 30.7500 -97.0094 64° Northeast 179 206 18,100 532 Climbing Houston Center
Tue 01:55:38 PM 30.7794 -96.9364 65° Northeast 206 237 18,500 677 Climbing Houston Center
Tue 01:56:40 PM 30.8064 -96.8761 62° Northeast 208 239 19,500 663 Climbing Houston Center
Tue 01:58:39 PM 30.8558 -96.7556 64° Northeast 213 245 20,500 449 Climbing Fort Worth Center
Tue 01:59:47 PM 30.8856 -96.6925 61° Northeast 220 253 20,900 185 Climbing Houston Center
Tue 02:00:49 PM 30.9186 -96.6072 66° East 238 274 20,900  Level Houston Center
Tue 02:01:51 PM 30.9525 -96.5325 62° Northeast 258 297 20,900  Level Houston Center
Tue 02:02:53 PM 30.9858 -96.4556 63° Northeast 264 304 20,900  Level Houston Center
Tue 02:03:55 PM 31.0178 -96.3769 65° Northeast 270 311 20,900  Level Houston Center
Tue 02:04:57 PM 31.0503 -96.2972 65° Northeast 274 315 20,900  Level Houston Center
Tue 02:05:59 PM 31.0847 -96.2172 63° Northeast 276 318 20,900 48 Level Houston Center
Tue 02:07:01 PM 31.1258 -96.1175 64° Northeast 285 328 21,000  Climbing Houston Center
Tue 02:08:03 PM 31.1572 -96.0425 64° Northeast 278 320 20,900  Descending Houston Center
Tue 02:09:05 PM 31.1925 -95.9600 63° Northeast 286 329 21,000 48 Climbing Houston Center
Tue 02:10:07 PM 31.2269 -95.8772 64° Northeast 287 330 21,000  Level Houston Center
Tue 02:11:09 PM 31.2683 -95.7803 63° Northeast 284 327 21,000  Level Houston Center
Tue 02:12:11 PM 31.3094 -95.7044 58° Northeast 285 328 21,000  Level Houston Center
Tue 02:13:14 PM 31.3747 -95.6578 31° Northeast 281 323 21,000  Level Houston Center
Tue 02:14:11 PM 31.4308 -95.6172 32° Northeast 278 320 21,000  Level Fort Worth Center
Tue 02:15:13 PM 31.5078 -95.5553 34° Northeast 278 320 21,000  Level Fort Worth Center
Tue 02:16:15 PM 31.5744 -95.5056 32° Northeast 280 322 21,000 -48 Level Fort Worth Center
Tue 02:17:17 PM 31.6372 -95.4533 35° Northeast 280 322 20,900 48 Descending Fort Worth Center
Tue 02:18:19 PM 31.6997 -95.4053 33° Northeast 276 318 21,100 290 Climbing Fort Worth Center
Tue 02:19:21 PM 31.7597 -95.3536 36° Northeast 269 310 21,500 532 Climbing Fort Worth Center
Tue 02:20:23 PM 31.8300 -95.2981 34° Northeast 260 299 22,200 576 Climbing Fort Worth Center
Tue 02:21:26 PM 31.8836 -95.2528 36° Northeast 244 281 22,700 336 Climbing Fort Worth Center
Tue 02:22:28 PM 31.9378 -95.2069 36° Northeast 239 275 22,900 145 Climbing Fort Worth Center
Tue 02:23:30 PM 31.9936 -95.1589 36° Northeast 242 278 23,000  Climbing Fort Worth Center
Tue 02:24:32 PM 32.0581 -95.1744 348° North 246 283 22,900  Descending Fort Worth Center
Tue 02:25:34 PM 32.1208 -95.2136 332° Northwest 253 291 23,000 48 Climbing Fort Worth Center
Tue 02:26:36 PM 32.1978 -95.2578 334° Northwest 255 293 23,000  Level Fort Worth Center
Tue 02:27:38 PM 32.2642 -95.3031 330° Northwest 261 300 23,000  Level Fort Worth Center
Tue 02:28:40 PM 32.3311 -95.3378 336° Northwest 263 303 23,000  Level Fort Worth Center
Tue 02:29:42 PM 32.4033 -95.3603 345° North 264 304 23,000  Level Fort Worth Center
Tue 02:30:45 PM 32.4731 -95.3872 342° North 264 304 23,000  Level Fort Worth Center
Tue 02:31:47 PM 32.5461 -95.3900 358° North 275 316 23,000  Level Fort Worth Center
Tue 02:32:49 PM 32.6100 -95.3158 44° Northeast 272 313 23,000  Level Fort Worth Center
Tue 02:33:51 PM 32.6478 -95.2508 55° Northeast 274 315 23,000  Level Fort Worth Center
Tue 02:34:53 PM 32.6872 -95.1711 60° Northeast 276 318 23,000  Level Fort Worth Center
Tue 02:35:55 PM 32.7269 -95.0719 65° Northeast 279 321 23,000  Level Fort Worth Center
Tue 02:36:57 PM 32.7447 -94.9797 77° East 283 326 23,000  Level Fort Worth Center
Tue 02:37:59 PM 32.7725 -94.8928 69° East 283 326 23,000  Level Fort Worth Center
Tue 02:39:01 PM 32.8000 -94.8061 69° East 282 325 23,000  Level Fort Worth Center
Tue 02:40:04 PM 32.8258 -94.7172 71° East 283 326 23,000  Level Fort Worth Center
Tue 02:41:06 PM 32.8547 -94.6089 72° East 286 329 23,000  Level Fort Worth Center
Tue 02:42:08 PM 32.8797 -94.5194 72° East 286 329 23,000  Level Fort Worth Center
Tue 02:43:10 PM 32.9042 -94.4314 72° East 285 328 23,000  Level Fort Worth Center
Tue 02:44:12 PM 32.9281 -94.3408 73° East 286 329 23,000  Level Fort Worth Center
Tue 02:45:14 PM 32.9525 -94.2519 72° East 286 329 23,000  Level Fort Worth Center
Tue 02:46:16 PM 32.9825 -94.1450 71° East 286 329 23,000 48 Level Fort Worth Center
Tue 02:47:18 PM 33.0058 -94.0564 73° East 284 327 23,100 48 Climbing Fort Worth Center
Tue 02:48:21 PM 33.0294 -93.9672 72° East 284 327 23,100  Level Fort Worth Center
Tue 02:49:23 PM 33.0531 -93.8783 72° East 284 327 23,100 -48 Level Fort Worth Center
Tue 02:50:25 PM 33.0767 -93.7897 72° East 284 327 23,000 -48 Descending Fort Worth Center
Tue 02:51:27 PM 33.1056 -93.6833 72° East 284 327 23,000  Level Fort Worth Center
Tue 02:52:29 PM 33.1303 -93.5961 71° East 282 325 23,000  Level Fort Worth Center
Tue 02:53:31 PM 33.1528 -93.5072 73° East 280 322 23,000 48 Level Fort Worth Center
Tue 02:54:33 PM 33.1769 -93.4194 72° East 280 322 23,100 48 Climbing Fort Worth Center
Tue 02:55:35 PM 33.1994 -93.3314 73° East 280 322 23,100  Level Fort Worth Center
Tue 02:56:38 PM 33.2275 -93.2239 73° East 282 325 23,100  Level Fort Worth Center
Tue 02:57:40 PM 33.2531 -93.1342 71° East 283 326 23,100  Level Fort Worth Center
Tue 02:59:53 PM 33.3056 -92.9417 72° East 282 325 23,100  Level Memphis Center
Tue 03:00:46 PM 33.3236 -92.8703 73° East 280 322 23,100  Level Fort Worth Center
Tue 03:01:48 PM 33.3450 -92.7819 74° East 280 322 23,100  Level Fort Worth Center
Tue 03:02:50 PM 33.3703 -92.6769 74° East 279 321 23,100  Level Fort Worth Center
Tue 03:03:53 PM 33.3919 -92.5881 74° East 279 321 23,100  Level Fort Worth Center
Tue 03:04:55 PM 33.4144 -92.5011 73° East 279 321 23,100  Level Fort Worth Center
Tue 03:05:57 PM 33.4378 -92.4153 72° East 276 318 23,100  Level Fort Worth Center
Tue 03:07:07 PM 33.4636 -92.3103 74° East 275 316 23,100  Level Memphis Center
Tue 03:08:09 PM 33.4842 -92.2250 74° East 272 313 23,100  Level Memphis Center
Tue 03:09:12 PM 33.5081 -92.1361 72° East 273 314 23,100  Level Memphis Center
Tue 03:10:14 PM 33.5358 -92.0308 72° East 274 315 23,100  Level Memphis Center
Tue 03:11:16 PM 33.5583 -91.9431 73° East 274 315 23,100  Level Memphis Center
Tue 03:12:18 PM 33.5789 -91.8542 74° East 274 315 23,100  Level Memphis Center
Tue 03:13:20 PM 33.6006 -91.7653 74° East 275 316 23,100  Level Memphis Center
Tue 03:14:22 PM 33.6233 -91.6761 73° East 281 323 23,100  Level Memphis Center
Tue 03:15:24 PM 33.6494 -91.5700 74° East 281 323 23,100  Level Memphis Center
Tue 03:16:26 PM 33.6706 -91.4811 74° East 281 323 23,100  Level Memphis Center
Tue 03:17:28 PM 33.6892 -91.3889 76° East 281 323 23,100  Level Memphis Center
Tue 03:18:30 PM 33.7108 -91.2997 74° East 281 323 23,100  Level Memphis Center
Tue 03:19:32 PM 33.7333 -91.2086 73° East 282 325 23,100  Level Memphis Center
Tue 03:20:35 PM 33.7622 -91.1000 72° East 283 326 23,100  Level Memphis Center
Tue 03:21:37 PM 33.7869 -91.0089 72° East 284 327 23,100  Level Memphis Center
Tue 03:22:39 PM 33.8103 -90.9172 73° East 285 328 23,100  Level Memphis Center
Tue 03:23:41 PM 33.8369 -90.8125 73° East 287 330 23,100  Level Memphis Center
Tue 03:24:43 PM 33.8592 -90.7192 74° East 288 331 23,100  Level Memphis Center
Tue 03:25:45 PM 33.8808 -90.6272 74° East 288 331 23,100  Level Memphis Center
Tue 03:26:47 PM 33.9022 -90.5336 75° East 289 333 23,100  Level Memphis Center
Tue 03:27:49 PM 33.9242 -90.4392 74° East 290 334 23,100  Level Memphis Center
Tue 03:28:51 PM 33.9472 -90.3456 73° East 292 336 23,100  Level Memphis Center
Tue 03:29:53 PM 33.9744 -90.2339 74° East 292 336 23,100  Level Memphis Center
Tue 03:30:56 PM 33.9969 -90.1406 74° East 292 336 23,100  Level Memphis Center
Tue 03:31:58 PM 34.0181 -90.0469 75° East 292 336 23,100  Level Memphis Center
Tue 03:33:00 PM 34.0375 -89.9547 76° East 291 335 23,100  Level Memphis Center
Tue 03:34:02 PM 34.0592 -89.8619 74° East 291 335 23,100  Level Memphis Center
Tue 03:35:04 PM 34.0850 -89.7503 74° East 291 335 23,100  Level Memphis Center
Tue 03:36:06 PM 34.1069 -89.6583 74° East 290 334 23,100  Level Memphis Center
Tue 03:37:08 PM 34.1283 -89.5650 75° East 290 334 23,100  Level Memphis Center
Tue 03:38:10 PM 34.1500 -89.4731 74° East 290 334 23,100  Level Memphis Center
Tue 03:39:12 PM 34.1711 -89.3783 75° East 290 334 23,100  Level Memphis Center
Tue 03:40:14 PM 34.1978 -89.2669 74° East 290 334 23,100  Level Memphis Center
Tue 03:40:28 PM 34.2036 -89.2444 73° East 287 330 23,100  Level Memphis Center
Tue 03:41:16 PM 34.2219 -89.1764 72° East 290 334 23,100  Level Memphis Center
Tue 03:42:19 PM 34.2464 -89.0828 72° East 290 334 23,100  Level Memphis Center
Tue 03:43:21 PM 34.2706 -88.9894 73° East 291 335 23,100  Level Memphis Center
Tue 03:44:23 PM 34.2950 -88.8956 72° East 291 335 23,100  Level Memphis Center
Tue 03:45:25 PM 34.3261 -88.7975 69° East 291 335 23,100  Level Memphis Center
Tue 03:46:27 PM 34.3547 -88.7058 69° East 291 335 23,100  Level Memphis Center
Tue 03:47:29 PM 34.3844 -88.6131 69° East 292 336 23,100  Level Memphis Center
Tue 03:48:31 PM 34.4189 -88.5031 69° East 292 336 23,100  Level Memphis Center
Tue 03:49:33 PM 34.4444 -88.4106 71° East 292 336 23,100  Level Memphis Center
Tue 03:50:35 PM 34.4767 -88.3200 67° East 292 336 23,100  Level Memphis Center
Tue 03:51:37 PM 34.5111 -88.2303 65° Northeast 292 336 23,100  Level Memphis Center
Tue 03:52:39 PM 34.5472 -88.1408 64° Northeast 292 336 23,100  Level Memphis Center
Tue 03:53:42 PM 34.5869 -88.0528 61° Northeast 293 337 23,100  Level Memphis Center
Tue 03:54:44 PM 34.6336 -87.9467 62° Northeast 293 337 23,100  Level Memphis Center
Tue 03:55:46 PM 34.6781 -87.8606 58° Northeast 295 339 23,100  Level Memphis Center
Tue 03:56:48 PM 34.7203 -87.7731 60° Northeast 295 339 23,100  Level Memphis Center
Tue 03:57:50 PM 34.7608 -87.6861 60° Northeast 295 339 23,100  Level Memphis Center
Tue 03:58:52 PM 34.8025 -87.5994 60° Northeast 295 339 23,100  Level Memphis Center
Tue 03:59:54 PM 34.8433 -87.5128 60° Northeast 295 339 23,100  Level Memphis Center
Tue 04:00:56 PM 34.8833 -87.4253 61° Northeast 295 339 23,100  Level Memphis Center
Tue 04:01:58 PM 34.9331 -87.3214 60° Northeast 295 339 23,100  Level Memphis Center
Tue 04:03:00 PM 34.9733 -87.2350 60° Northeast 295 339 23,100  Level Memphis Center
Tue 04:04:03 PM 35.0128 -87.1489 61° Northeast 295 339 23,100  Level Memphis Center
Tue 04:05:05 PM 35.0544 -87.0633 59° Northeast 295 339 23,100  Level Memphis Center
Tue 04:06:07 PM 35.1008 -86.9803 56° Northeast 295 339 23,100  Level Memphis Center
Tue 04:07:09 PM 35.1481 -86.9008 54° Northeast 294 338 23,100  Level Memphis Center
Tue 04:08:11 PM 35.1981 -86.8133 55° Northeast 293 337 23,100  Level Memphis Center
Tue 04:09:13 PM 35.2444 -86.7322 55° Northeast 292 336 23,100  Level Memphis Center
Tue 04:10:15 PM 35.2875 -86.6297 63° Northeast 291 335 23,100  Level Memphis Center
Tue 04:11:17 PM 35.3008 -86.5331 80° East 289 333 23,100  Level Memphis Center
Tue 04:12:19 PM 35.2906 -86.4383 98° East 286 329 23,100 -581 Level Memphis Center
Tue 04:13:21 PM 35.2850 -86.3383 94° East 286 329 21,900 -1,548 Descending Memphis Center
Tue 04:14:23 PM 35.2831 -86.2339 91° East 299 344 19,900 -2,081 Descending Memphis Center
Tue 04:15:25 PM 35.2825 -86.1264 90° East 309 356 17,600 -2,374 Descending Memphis Center
Tue 04:17:30 PM 35.2864 -85.9089 89° East 297 342 12,500 -2,278 Descending Memphis Center
Tue 04:18:32 PM 35.2942 -85.8153 84° East 283 326 10,500 -1,984 Descending Memphis Center
Tue 04:19:34 PM 35.3036 -85.7261 83° East 271 312 8,400 -1,645 Descending Memphis Center
Tue 04:20:36 PM 35.3103 -85.6383 85° East 265 305 7,100 -677 Descending Memphis Center
Tue 04:21:38 PM 35.3194 -85.5650 81° East 232 267 7,000 -48 Descending Memphis Center
Tue 04:22:40 PM 35.3275 -85.4914 82° East 221 254 7,000 -484 Level Memphis Center
Tue 04:23:42 PM 35.3169 -85.3994 98° East 224 258 6,000 -774 Descending Memphis Center
Tue 04:24:44 PM 35.3100 -85.3286 97° East 216 249 5,400 -871 Descending Memphis Center
Tue 04:25:46 PM 35.3053 -85.2622 95° East 202 232 4,200 -768 Descending Memphis Center
Tue 04:26:49 PM 35.2983 -85.1925 97° East 202 232 3,800 -288 Descending Memphis Center
Tue 04:27:51 PM 35.2714 -85.1489 127° Southeast 177 204 3,600 -97 Descending Memphis Center
Tue 04:28:53 PM 35.2286 -85.1283 159° South 152 175 3,600  Level Memphis Center
Tue 04:29:55 PM 35.1947 -85.1419 198° South 137 158 3,600  Level Memphis Center

Login

Don't have an account? Register now (free) for customized features, flight alerts, and more!